sensor_id;sensor_type;location;lat;lon;timestamp;P1;durP1;ratioP1;P2;durP2;ratioP2
6898;SDS011;3488;42.616;23.350;2023-04-03T00:01:00;1.23;;;1.10;;
6898;SDS011;3488;42.616;23.350;2023-04-03T00:03:28;1.10;;;1.10;;
6898;SDS011;3488;42.616;23.350;2023-04-03T00:05:55;0.90;;;0.90;;
6898;SDS011;3488;42.616;23.350;2023-04-03T00:08:22;0.77;;;0.75;;
6898;SDS011;3488;42.616;23.350;2023-04-03T00:10:49;0.93;;;0.93;;
6898;SDS011;3488;42.616;23.350;2023-04-03T00:13:17;1.10;;;1.10;;
6898;SDS011;3488;42.616;23.350;2023-04-03T00:15:44;1.00;;;1.00;;
6898;SDS011;3488;42.616;23.350;2023-04-03T00:18:12;1.20;;;1.20;;
6898;SDS011;3488;42.616;23.350;2023-04-03T00:20:40;0.85;;;0.85;;
6898;SDS011;3488;42.616;23.350;2023-04-03T00:23:07;1.20;;;1.20;;
6898;SDS011;3488;42.616;23.350;2023-04-03T00:25:34;1.40;;;1.30;;
6898;SDS011;3488;42.616;23.350;2023-04-03T00:28:01;0.80;;;0.80;;
6898;SDS011;3488;42.616;23.350;2023-04-03T00:30:29;0.95;;;0.95;;
6898;SDS011;3488;42.616;23.350;2023-04-03T00:32:56;1.00;;;1.00;;
6898;SDS011;3488;42.616;23.350;2023-04-03T00:35:24;0.90;;;0.90;;
6898;SDS011;3488;42.616;23.350;2023-04-03T00:37:53;0.60;;;0.60;;
6898;SDS011;3488;42.616;23.350;2023-04-03T00:40:21;1.40;;;1.40;;
6898;SDS011;3488;42.616;23.350;2023-04-03T00:42:51;1.20;;;1.20;;
6898;SDS011;3488;42.616;23.350;2023-04-03T00:45:27;1.80;;;1.20;;
6898;SDS011;3488;42.616;23.350;2023-04-03T00:47:59;1.10;;;1.10;;
6898;SDS011;3488;42.616;23.350;2023-04-03T00:50:28;1.10;;;1.10;;
6898;SDS011;3488;42.616;23.350;2023-04-03T00:52:57;0.90;;;0.90;;
6898;SDS011;3488;42.616;23.350;2023-04-03T00:55:25;0.85;;;0.85;;
6898;SDS011;3488;42.616;23.350;2023-04-03T00:57:52;1.17;;;0.90;;
6898;SDS011;3488;42.616;23.350;2023-04-03T01:00:21;0.90;;;0.90;;
6898;SDS011;3488;42.616;23.350;2023-04-03T01:02:49;1.20;;;0.82;;
6898;SDS011;3488;42.616;23.350;2023-04-03T01:05:17;0.88;;;0.88;;
6898;SDS011;3488;42.616;23.350;2023-04-03T01:07:46;0.90;;;0.90;;
6898;SDS011;3488;42.616;23.350;2023-04-03T01:10:16;1.00;;;1.00;;
6898;SDS011;3488;42.616;23.350;2023-04-03T01:12:46;1.05;;;1.05;;
6898;SDS011;3488;42.616;23.350;2023-04-03T01:15:16;1.45;;;1.38;;
6898;SDS011;3488;42.616;23.350;2023-04-03T01:17:45;1.38;;;1.30;;
6898;SDS011;3488;42.616;23.350;2023-04-03T01:20:19;2.15;;;1.40;;
6898;SDS011;3488;42.616;23.350;2023-04-03T01:23:15;1.20;;;1.20;;
6898;SDS011;3488;42.616;23.350;2023-04-03T01:25:50;0.73;;;0.73;;
6898;SDS011;3488;42.616;23.350;2023-04-03T01:28:20;0.88;;;0.88;;
6898;SDS011;3488;42.616;23.350;2023-04-03T01:30:50;1.35;;;1.25;;
6898;SDS011;3488;42.616;23.350;2023-04-03T01:33:24;0.93;;;0.93;;
6898;SDS011;3488;42.616;23.350;2023-04-03T01:35:51;1.02;;;0.98;;
6898;SDS011;3488;42.616;23.350;2023-04-03T01:38:18;2.25;;;1.10;;
6898;SDS011;3488;42.616;23.350;2023-04-03T01:40:45;1.30;;;1.20;;
6898;SDS011;3488;42.616;23.350;2023-04-03T01:43:12;5.18;;;0.90;;
6898;SDS011;3488;42.616;23.350;2023-04-03T01:45:39;1.67;;;1.40;;
6898;SDS011;3488;42.616;23.350;2023-04-03T01:48:06;1.00;;;1.00;;
6898;SDS011;3488;42.616;23.350;2023-04-03T01:50:34;1.00;;;1.00;;
6898;SDS011;3488;42.616;23.350;2023-04-03T01:53:01;1.20;;;1.20;;
6898;SDS011;3488;42.616;23.350;2023-04-03T01:55:28;1.35;;;1.20;;
6898;SDS011;3488;42.616;23.350;2023-04-03T01:57:55;1.15;;;1.15;;
6898;SDS011;3488;42.616;23.350;2023-04-03T02:00:22;0.70;;;0.70;;
6898;SDS011;3488;42.616;23.350;2023-04-03T02:02:49;1.10;;;1.00;;
6898;SDS011;3488;42.616;23.350;2023-04-03T02:05:16;1.17;;;0.80;;
6898;SDS011;3488;42.616;23.350;2023-04-03T02:07:45;1.13;;;1.13;;
6898;SDS011;3488;42.616;23.350;2023-04-03T02:10:13;0.95;;;0.93;;
6898;SDS011;3488;42.616;23.350;2023-04-03T02:12:40;1.17;;;1.17;;
6898;SDS011;3488;42.616;23.350;2023-04-03T02:15:07;0.90;;;0.90;;
6898;SDS011;3488;42.616;23.350;2023-04-03T02:17:35;0.70;;;0.70;;
6898;SDS011;3488;42.616;23.350;2023-04-03T02:20:02;0.90;;;0.90;;
6898;SDS011;3488;42.616;23.350;2023-04-03T02:22:29;1.40;;;1.40;;
6898;SDS011;3488;42.616;23.350;2023-04-03T02:24:58;1.08;;;1.05;;
6898;SDS011;3488;42.616;23.350;2023-04-03T02:27:25;1.00;;;1.00;;
6898;SDS011;3488;42.616;23.350;2023-04-03T02:29:52;1.10;;;1.10;;
6898;SDS011;3488;42.616;23.350;2023-04-03T02:32:19;1.70;;;1.60;;
6898;SDS011;3488;42.616;23.350;2023-04-03T02:34:46;1.23;;;1.23;;
6898;SDS011;3488;42.616;23.350;2023-04-03T02:37:13;1.67;;;1.58;;
6898;SDS011;3488;42.616;23.350;2023-04-03T02:39:40;3.45;;;1.60;;
6898;SDS011;3488;42.616;23.350;2023-04-03T02:42:09;1.45;;;1.35;;
6898;SDS011;3488;42.616;23.350;2023-04-03T02:44:36;1.60;;;1.50;;
6898;SDS011;3488;42.616;23.350;2023-04-03T02:47:03;1.13;;;1.13;;
6898;SDS011;3488;42.616;23.350;2023-04-03T02:49:31;2.53;;;1.83;;
6898;SDS011;3488;42.616;23.350;2023-04-03T02:51:57;1.70;;;1.60;;
6898;SDS011;3488;42.616;23.350;2023-04-03T02:54:24;1.30;;;1.30;;
6898;SDS011;3488;42.616;23.350;2023-04-03T02:56:53;3.17;;;1.80;;
6898;SDS011;3488;42.616;23.350;2023-04-03T02:59:22;2.08;;;1.98;;
6898;SDS011;3488;42.616;23.350;2023-04-03T03:01:49;2.45;;;1.75;;
6898;SDS011;3488;42.616;23.350;2023-04-03T03:04:16;1.40;;;1.40;;
6898;SDS011;3488;42.616;23.350;2023-04-03T03:06:43;2.80;;;1.50;;
6898;SDS011;3488;42.616;23.350;2023-04-03T03:09:10;1.45;;;1.40;;
6898;SDS011;3488;42.616;23.350;2023-04-03T03:11:38;2.00;;;1.80;;
6898;SDS011;3488;42.616;23.350;2023-04-03T03:14:05;3.85;;;2.55;;
6898;SDS011;3488;42.616;23.350;2023-04-03T03:16:34;2.15;;;2.00;;
6898;SDS011;3488;42.616;23.350;2023-04-03T03:19:00;1.20;;;1.20;;
6898;SDS011;3488;42.616;23.350;2023-04-03T03:21:27;1.20;;;1.20;;
6898;SDS011;3488;42.616;23.350;2023-04-03T03:23:54;1.33;;;0.80;;
6898;SDS011;3488;42.616;23.350;2023-04-03T03:26:21;1.13;;;1.02;;
6898;SDS011;3488;42.616;23.350;2023-04-03T03:28:48;0.75;;;0.75;;
6898;SDS011;3488;42.616;23.350;2023-04-03T03:31:15;1.00;;;0.98;;
6898;SDS011;3488;42.616;23.350;2023-04-03T03:33:44;1.38;;;1.10;;
6898;SDS011;3488;42.616;23.350;2023-04-03T03:36:10;1.65;;;1.10;;
6898;SDS011;3488;42.616;23.350;2023-04-03T03:38:37;1.23;;;1.23;;
6898;SDS011;3488;42.616;23.350;2023-04-03T03:41:04;1.23;;;1.13;;
6898;SDS011;3488;42.616;23.350;2023-04-03T03:43:31;1.55;;;1.45;;
6898;SDS011;3488;42.616;23.350;2023-04-03T03:45:58;1.95;;;1.70;;
6898;SDS011;3488;42.616;23.350;2023-04-03T03:48:25;1.60;;;1.50;;
6898;SDS011;3488;42.616;23.350;2023-04-03T03:50:54;1.85;;;1.75;;
6898;SDS011;3488;42.616;23.350;2023-04-03T03:53:21;1.40;;;1.35;;
6898;SDS011;3488;42.616;23.350;2023-04-03T03:55:48;1.13;;;1.13;;
6898;SDS011;3488;42.616;23.350;2023-04-03T03:58:15;1.30;;;1.30;;
6898;SDS011;3488;42.616;23.350;2023-04-03T04:00:42;1.10;;;1.10;;
6898;SDS011;3488;42.616;23.350;2023-04-03T04:03:09;2.72;;;1.10;;
6898;SDS011;3488;42.616;23.350;2023-04-03T04:05:36;1.20;;;1.20;;
6898;SDS011;3488;42.616;23.350;2023-04-03T04:08:05;2.33;;;1.80;;
6898;SDS011;3488;42.616;23.350;2023-04-03T04:10:32;2.25;;;2.15;;
6898;SDS011;3488;42.616;23.350;2023-04-03T04:12:59;3.22;;;2.45;;
6898;SDS011;3488;42.616;23.350;2023-04-03T04:15:27;2.08;;;1.88;;
6898;SDS011;3488;42.616;23.350;2023-04-03T04:17:54;5.65;;;3.75;;
6898;SDS011;3488;42.616;23.350;2023-04-03T04:20:22;2.30;;;2.20;;
6898;SDS011;3488;42.616;23.350;2023-04-03T04:22:49;2.08;;;1.98;;
6898;SDS011;3488;42.616;23.350;2023-04-03T04:25:17;1.80;;;1.70;;
6898;SDS011;3488;42.616;23.350;2023-04-03T04:27:44;2.15;;;1.80;;
6898;SDS011;3488;42.616;23.350;2023-04-03T04:30:12;1.95;;;1.85;;
6898;SDS011;3488;42.616;23.350;2023-04-03T04:32:39;2.38;;;1.70;;
6898;SDS011;3488;42.616;23.350;2023-04-03T04:35:07;8.05;;;1.60;;
6898;SDS011;3488;42.616;23.350;2023-04-03T04:37:34;3.10;;;1.83;;
6898;SDS011;3488;42.616;23.350;2023-04-03T04:40:01;2.00;;;1.90;;
6898;SDS011;3488;42.616;23.350;2023-04-03T04:42:30;1.75;;;1.65;;
6898;SDS011;3488;42.616;23.350;2023-04-03T04:44:57;2.20;;;2.10;;
6898;SDS011;3488;42.616;23.350;2023-04-03T04:47:24;2.40;;;2.30;;
6898;SDS011;3488;42.616;23.350;2023-04-03T04:49:51;2.35;;;2.25;;
6898;SDS011;3488;42.616;23.350;2023-04-03T04:52:18;3.63;;;1.92;;
6898;SDS011;3488;42.616;23.350;2023-04-03T04:54:45;2.28;;;2.17;;
6898;SDS011;3488;42.616;23.350;2023-04-03T04:57:12;4.60;;;3.85;;
6898;SDS011;3488;42.616;23.350;2023-04-03T04:59:40;2.63;;;2.42;;
6898;SDS011;3488;42.616;23.350;2023-04-03T05:02:07;2.10;;;1.85;;
6898;SDS011;3488;42.616;23.350;2023-04-03T05:04:34;1.95;;;1.48;;
6898;SDS011;3488;42.616;23.350;2023-04-03T05:07:01;2.33;;;2.03;;
6898;SDS011;3488;42.616;23.350;2023-04-03T05:09:28;7.95;;;2.13;;
6898;SDS011;3488;42.616;23.350;2023-04-03T05:11:55;1.80;;;1.70;;
6898;SDS011;3488;42.616;23.350;2023-04-03T05:14:22;3.05;;;2.67;;
6898;SDS011;3488;42.616;23.350;2023-04-03T05:16:50;2.22;;;1.73;;
6898;SDS011;3488;42.616;23.350;2023-04-03T05:19:18;2.35;;;2.25;;
6898;SDS011;3488;42.616;23.350;2023-04-03T05:21:45;2.55;;;2.45;;
6898;SDS011;3488;42.616;23.350;2023-04-03T05:24:12;3.67;;;2.00;;
6898;SDS011;3488;42.616;23.350;2023-04-03T05:26:39;2.72;;;2.10;;
6898;SDS011;3488;42.616;23.350;2023-04-03T05:29:07;2.85;;;2.10;;
6898;SDS011;3488;42.616;23.350;2023-04-03T05:31:34;2.58;;;2.47;;
6898;SDS011;3488;42.616;23.350;2023-04-03T05:34:03;2.65;;;2.45;;
6898;SDS011;3488;42.616;23.350;2023-04-03T05:36:29;6.22;;;2.58;;
6898;SDS011;3488;42.616;23.350;2023-04-03T05:38:56;3.65;;;2.90;;
6898;SDS011;3488;42.616;23.350;2023-04-03T05:41:23;6.68;;;3.22;;
6898;SDS011;3488;42.616;23.350;2023-04-03T05:43:50;3.80;;;3.25;;
6898;SDS011;3488;42.616;23.350;2023-04-03T05:46:18;5.68;;;2.70;;
6898;SDS011;3488;42.616;23.350;2023-04-03T05:48:47;5.38;;;2.70;;
6898;SDS011;3488;42.616;23.350;2023-04-03T05:51:17;4.65;;;3.30;;
6898;SDS011;3488;42.616;23.350;2023-04-03T05:53:45;2.83;;;2.63;;
6898;SDS011;3488;42.616;23.350;2023-04-03T05:56:14;3.70;;;3.40;;
6898;SDS011;3488;42.616;23.350;2023-04-03T05:58:41;8.90;;;3.70;;
6898;SDS011;3488;42.616;23.350;2023-04-03T06:01:08;4.75;;;3.60;;
6898;SDS011;3488;42.616;23.350;2023-04-03T06:03:34;5.03;;;4.47;;
6898;SDS011;3488;42.616;23.350;2023-04-03T06:06:02;5.93;;;4.63;;
6898;SDS011;3488;42.616;23.350;2023-04-03T06:08:32;5.97;;;4.80;;
6898;SDS011;3488;42.616;23.350;2023-04-03T06:10:59;9.45;;;5.63;;
6898;SDS011;3488;42.616;23.350;2023-04-03T06:13:27;11.13;;;5.75;;
6898;SDS011;3488;42.616;23.350;2023-04-03T06:15:54;21.55;;;6.60;;
6898;SDS011;3488;42.616;23.350;2023-04-03T06:18:22;17.77;;;7.68;;
6898;SDS011;3488;42.616;23.350;2023-04-03T06:20:49;21.13;;;8.23;;
6898;SDS011;3488;42.616;23.350;2023-04-03T06:23:16;20.55;;;7.90;;
6898;SDS011;3488;42.616;23.350;2023-04-03T06:25:45;9.38;;;7.28;;
6898;SDS011;3488;42.616;23.350;2023-04-03T06:28:12;12.35;;;7.40;;
6898;SDS011;3488;42.616;23.350;2023-04-03T06:30:39;14.77;;;7.05;;
6898;SDS011;3488;42.616;23.350;2023-04-03T06:33:07;16.13;;;7.03;;
6898;SDS011;3488;42.616;23.350;2023-04-03T06:35:34;16.85;;;6.93;;
6898;SDS011;3488;42.616;23.350;2023-04-03T06:38:03;7.95;;;6.95;;
6898;SDS011;3488;42.616;23.350;2023-04-03T06:40:34;13.65;;;7.45;;
6898;SDS011;3488;42.616;23.350;2023-04-03T06:43:03;17.98;;;6.95;;
6898;SDS011;3488;42.616;23.350;2023-04-03T06:45:30;13.95;;;6.88;;
6898;SDS011;3488;42.616;23.350;2023-04-03T06:47:57;13.32;;;7.03;;
6898;SDS011;3488;42.616;23.350;2023-04-03T06:50:25;10.00;;;6.57;;
6898;SDS011;3488;42.616;23.350;2023-04-03T06:52:52;11.63;;;6.88;;
6898;SDS011;3488;42.616;23.350;2023-04-03T06:55:19;13.43;;;7.15;;
6898;SDS011;3488;42.616;23.350;2023-04-03T06:57:46;13.98;;;6.70;;
6898;SDS011;3488;42.616;23.350;2023-04-03T07:00:15;9.30;;;6.55;;
6898;SDS011;3488;42.616;23.350;2023-04-03T07:02:43;10.13;;;6.28;;
6898;SDS011;3488;42.616;23.350;2023-04-03T07:05:10;8.52;;;6.70;;
6898;SDS011;3488;42.616;23.350;2023-04-03T07:07:40;8.43;;;6.47;;
6898;SDS011;3488;42.616;23.350;2023-04-03T07:10:07;14.05;;;7.45;;
6898;SDS011;3488;42.616;23.350;2023-04-03T07:12:36;8.35;;;7.03;;
6898;SDS011;3488;42.616;23.350;2023-04-03T07:15:03;10.35;;;6.68;;
6898;SDS011;3488;42.616;23.350;2023-04-03T07:17:32;12.13;;;7.53;;
6898;SDS011;3488;42.616;23.350;2023-04-03T07:19:59;16.20;;;7.72;;
6898;SDS011;3488;42.616;23.350;2023-04-03T07:22:29;14.88;;;7.20;;
6898;SDS011;3488;42.616;23.350;2023-04-03T07:24:56;12.20;;;7.68;;
6898;SDS011;3488;42.616;23.350;2023-04-03T07:27:24;7.65;;;6.68;;
6898;SDS011;3488;42.616;23.350;2023-04-03T07:29:50;13.88;;;7.65;;
6898;SDS011;3488;42.616;23.350;2023-04-03T07:32:17;7.35;;;6.57;;
6898;SDS011;3488;42.616;23.350;2023-04-03T07:34:48;17.35;;;7.35;;
6898;SDS011;3488;42.616;23.350;2023-04-03T07:37:16;12.48;;;7.40;;
6898;SDS011;3488;42.616;23.350;2023-04-03T07:39:44;17.23;;;7.85;;
6898;SDS011;3488;42.616;23.350;2023-04-03T07:42:32;14.65;;;8.15;;
6898;SDS011;3488;42.616;23.350;2023-04-03T07:45:01;10.70;;;7.00;;
6898;SDS011;3488;42.616;23.350;2023-04-03T07:47:28;12.30;;;7.07;;
6898;SDS011;3488;42.616;23.350;2023-04-03T07:49:57;9.38;;;6.78;;
6898;SDS011;3488;42.616;23.350;2023-04-03T07:52:24;11.40;;;8.30;;
6898;SDS011;3488;42.616;23.350;2023-04-03T07:54:51;15.38;;;8.52;;
6898;SDS011;3488;42.616;23.350;2023-04-03T07:57:21;19.38;;;9.65;;
6898;SDS011;3488;42.616;23.350;2023-04-03T07:59:51;20.35;;;9.38;;
6898;SDS011;3488;42.616;23.350;2023-04-03T08:02:21;15.63;;;10.10;;
6898;SDS011;3488;42.616;23.350;2023-04-03T08:04:48;13.85;;;9.10;;
6898;SDS011;3488;42.616;23.350;2023-04-03T08:07:17;19.80;;;9.98;;
6898;SDS011;3488;42.616;23.350;2023-04-03T08:09:49;14.57;;;9.10;;
6898;SDS011;3488;42.616;23.350;2023-04-03T08:12:19;16.50;;;9.93;;
6898;SDS011;3488;42.616;23.350;2023-04-03T08:14:46;14.40;;;10.15;;
6898;SDS011;3488;42.616;23.350;2023-04-03T08:17:13;22.77;;;10.43;;
6898;SDS011;3488;42.616;23.350;2023-04-03T08:19:40;21.02;;;10.60;;
6898;SDS011;3488;42.616;23.350;2023-04-03T08:22:07;15.65;;;9.90;;
6898;SDS011;3488;42.616;23.350;2023-04-03T08:24:35;14.75;;;9.13;;
6898;SDS011;3488;42.616;23.350;2023-04-03T08:27:02;13.82;;;9.68;;
6898;SDS011;3488;42.616;23.350;2023-04-03T08:29:29;13.63;;;8.85;;
6898;SDS011;3488;42.616;23.350;2023-04-03T08:31:56;18.77;;;9.32;;
6898;SDS011;3488;42.616;23.350;2023-04-03T08:34:23;11.18;;;9.00;;
6898;SDS011;3488;42.616;23.350;2023-04-03T08:36:51;9.88;;;8.48;;
6898;SDS011;3488;42.616;23.350;2023-04-03T08:39:18;15.48;;;7.88;;
6898;SDS011;3488;42.616;23.350;2023-04-03T08:41:46;8.18;;;7.35;;
6898;SDS011;3488;42.616;23.350;2023-04-03T08:44:15;17.77;;;9.15;;
6898;SDS011;3488;42.616;23.350;2023-04-03T08:46:56;11.68;;;7.95;;
6898;SDS011;3488;42.616;23.350;2023-04-03T08:49:38;11.20;;;7.53;;
6898;SDS011;3488;42.616;23.350;2023-04-03T08:52:13;11.15;;;7.40;;
6898;SDS011;3488;42.616;23.350;2023-04-03T08:54:48;9.88;;;7.65;;
6898;SDS011;3488;42.616;23.350;2023-04-03T08:57:20;8.95;;;7.15;;
6898;SDS011;3488;42.616;23.350;2023-04-03T08:59:54;11.48;;;6.93;;
6898;SDS011;3488;42.616;23.350;2023-04-03T09:02:25;11.00;;;7.50;;
6898;SDS011;3488;42.616;23.350;2023-04-03T09:04:55;9.32;;;6.70;;
6898;SDS011;3488;42.616;23.350;2023-04-03T09:07:25;7.57;;;5.82;;
6898;SDS011;3488;42.616;23.350;2023-04-03T09:10:00;6.72;;;3.78;;
6898;SDS011;3488;42.616;23.350;2023-04-03T09:12:32;2.92;;;2.22;;
6898;SDS011;3488;42.616;23.350;2023-04-03T09:15:06;7.13;;;3.08;;
6898;SDS011;3488;42.616;23.350;2023-04-03T09:17:41;5.45;;;4.38;;
6898;SDS011;3488;42.616;23.350;2023-04-03T09:20:17;4.53;;;4.13;;
6898;SDS011;3488;42.616;23.350;2023-04-03T09:22:51;2.90;;;1.73;;
6898;SDS011;3488;42.616;23.350;2023-04-03T09:25:20;1.42;;;1.33;;
6898;SDS011;3488;42.616;23.350;2023-04-03T09:27:51;1.10;;;1.10;;
6898;SDS011;3488;42.616;23.350;2023-04-03T09:30:19;1.90;;;1.80;;
6898;SDS011;3488;42.616;23.350;2023-04-03T09:32:48;1.70;;;1.60;;
6898;SDS011;3488;42.616;23.350;2023-04-03T09:35:19;1.77;;;1.67;;
6898;SDS011;3488;42.616;23.350;2023-04-03T09:37:50;1.77;;;1.77;;
6898;SDS011;3488;42.616;23.350;2023-04-03T09:40:29;1.40;;;1.40;;
6898;SDS011;3488;42.616;23.350;2023-04-03T09:43:08;1.35;;;1.35;;
6898;SDS011;3488;42.616;23.350;2023-04-03T09:45:51;0.90;;;0.90;;
6898;SDS011;3488;42.616;23.350;2023-04-03T09:48:19;1.15;;;1.13;;
6898;SDS011;3488;42.616;23.350;2023-04-03T09:50:55;1.50;;;1.50;;
6898;SDS011;3488;42.616;23.350;2023-04-03T09:53:34;3.55;;;3.03;;
6898;SDS011;3488;42.616;23.350;2023-04-03T09:56:03;9.18;;;7.30;;
6898;SDS011;3488;42.616;23.350;2023-04-03T09:58:47;5.78;;;4.85;;
6898;SDS011;3488;42.616;23.350;2023-04-03T10:01:26;4.80;;;4.40;;
6898;SDS011;3488;42.616;23.350;2023-04-03T10:06:47;1.30;;;1.30;;
6898;SDS011;3488;42.616;23.350;2023-04-03T10:09:20;1.70;;;1.60;;
6898;SDS011;3488;42.616;23.350;2023-04-03T10:12:00;2.47;;;1.83;;
6898;SDS011;3488;42.616;23.350;2023-04-03T10:14:32;1.80;;;1.70;;
6898;SDS011;3488;42.616;23.350;2023-04-03T10:17:13;2.20;;;1.80;;
6898;SDS011;3488;42.616;23.350;2023-04-03T10:19:45;1.38;;;1.38;;
6898;SDS011;3488;42.616;23.350;2023-04-03T10:22:22;1.60;;;1.50;;
6898;SDS011;3488;42.616;23.350;2023-04-03T10:25:03;1.42;;;1.33;;
6898;SDS011;3488;42.616;23.350;2023-04-03T10:27:44;2.00;;;1.50;;
6898;SDS011;3488;42.616;23.350;2023-04-03T10:30:24;3.08;;;2.03;;
6898;SDS011;3488;42.616;23.350;2023-04-03T10:33:01;3.08;;;2.88;;
6898;SDS011;3488;42.616;23.350;2023-04-03T10:35:44;1.67;;;1.58;;
6898;SDS011;3488;42.616;23.350;2023-04-03T10:38:15;1.38;;;1.38;;
6898;SDS011;3488;42.616;23.350;2023-04-03T10:40:50;2.58;;;1.67;;
6898;SDS011;3488;42.616;23.350;2023-04-03T10:43:25;1.55;;;1.48;;
6898;SDS011;3488;42.616;23.350;2023-04-03T10:46:02;2.58;;;1.85;;
6898;SDS011;3488;42.616;23.350;2023-04-03T10:48:40;1.77;;;1.67;;
6898;SDS011;3488;42.616;23.350;2023-04-03T10:51:23;2.45;;;2.28;;
6898;SDS011;3488;42.616;23.350;2023-04-03T10:53:55;4.15;;;1.95;;
6898;SDS011;3488;42.616;23.350;2023-04-03T10:56:30;4.47;;;2.15;;
6898;SDS011;3488;42.616;23.350;2023-04-03T10:59:06;3.50;;;1.67;;
6898;SDS011;3488;42.616;23.350;2023-04-03T11:01:44;3.35;;;1.70;;
6898;SDS011;3488;42.616;23.350;2023-04-03T11:04:13;3.25;;;1.98;;
6898;SDS011;3488;42.616;23.350;2023-04-03T11:06:43;2.10;;;1.98;;
6898;SDS011;3488;42.616;23.350;2023-04-03T11:09:16;2.20;;;2.10;;
6898;SDS011;3488;42.616;23.350;2023-04-03T11:11:48;3.00;;;1.90;;
6898;SDS011;3488;42.616;23.350;2023-04-03T11:14:18;2.90;;;2.30;;
6898;SDS011;3488;42.616;23.350;2023-04-03T11:16:53;2.55;;;1.90;;
6898;SDS011;3488;42.616;23.350;2023-04-03T11:19:41;2.42;;;2.20;;
6898;SDS011;3488;42.616;23.350;2023-04-03T11:22:14;2.72;;;2.53;;
6898;SDS011;3488;42.616;23.350;2023-04-03T11:24:51;2.63;;;2.53;;
6898;SDS011;3488;42.616;23.350;2023-04-03T11:27:25;3.10;;;2.80;;
6898;SDS011;3488;42.616;23.350;2023-04-03T11:29:58;3.35;;;2.60;;
6898;SDS011;3488;42.616;23.350;2023-04-03T11:32:34;3.33;;;3.13;;
6898;SDS011;3488;42.616;23.350;2023-04-03T11:35:20;3.35;;;2.95;;
6898;SDS011;3488;42.616;23.350;2023-04-03T11:37:49;3.35;;;3.15;;
6898;SDS011;3488;42.616;23.350;2023-04-03T11:40:20;5.15;;;3.42;;
6898;SDS011;3488;42.616;23.350;2023-04-03T11:42:52;3.53;;;3.22;;
6898;SDS011;3488;42.616;23.350;2023-04-03T11:45:29;3.08;;;2.88;;
6898;SDS011;3488;42.616;23.350;2023-04-03T11:48:03;4.60;;;4.22;;
6898;SDS011;3488;42.616;23.350;2023-04-03T11:50:41;4.85;;;4.25;;
6898;SDS011;3488;42.616;23.350;2023-04-03T11:53:27;5.63;;;4.57;;
6898;SDS011;3488;42.616;23.350;2023-04-03T11:56:00;5.70;;;5.18;;
6898;SDS011;3488;42.616;23.350;2023-04-03T12:01:53;6.10;;;5.50;;
6898;SDS011;3488;42.616;23.350;2023-04-03T12:04:23;7.20;;;6.10;;
6898;SDS011;3488;42.616;23.350;2023-04-03T12:06:54;7.63;;;6.93;;
6898;SDS011;3488;42.616;23.350;2023-04-03T12:09:29;10.90;;;6.90;;
6898;SDS011;3488;42.616;23.350;2023-04-03T12:12:07;5.50;;;4.80;;
6898;SDS011;3488;42.616;23.350;2023-04-03T12:14:50;5.28;;;4.93;;
6898;SDS011;3488;42.616;23.350;2023-04-03T12:17:22;6.60;;;4.88;;
6898;SDS011;3488;42.616;23.350;2023-04-03T12:19:55;4.55;;;4.25;;
6898;SDS011;3488;42.616;23.350;2023-04-03T12:22:22;5.38;;;4.38;;
6898;SDS011;3488;42.616;23.350;2023-04-03T12:24:50;8.93;;;3.67;;
6898;SDS011;3488;42.616;23.350;2023-04-03T12:27:21;3.03;;;2.90;;
6898;SDS011;3488;42.616;23.350;2023-04-03T12:29:56;2.80;;;2.60;;
6898;SDS011;3488;42.616;23.350;2023-04-03T12:35:36;2.97;;;2.78;;
6898;SDS011;3488;42.616;23.350;2023-04-03T12:38:29;3.88;;;2.80;;
6898;SDS011;3488;42.616;23.350;2023-04-03T12:44:01;2.45;;;2.35;;
6898;SDS011;3488;42.616;23.350;2023-04-03T12:46:43;2.85;;;2.70;;
6898;SDS011;3488;42.616;23.350;2023-04-03T12:49:18;3.78;;;3.40;;
6898;SDS011;3488;42.616;23.350;2023-04-03T12:51:58;3.53;;;2.72;;
6898;SDS011;3488;42.616;23.350;2023-04-03T12:54:27;7.40;;;3.53;;
6898;SDS011;3488;42.616;23.350;2023-04-03T12:57:11;6.72;;;3.08;;
6898;SDS011;3488;42.616;23.350;2023-04-03T12:59:39;3.40;;;3.20;;
6898;SDS011;3488;42.616;23.350;2023-04-03T13:02:14;3.65;;;3.45;;
6898;SDS011;3488;42.616;23.350;2023-04-03T13:04:48;5.05;;;3.60;;
6898;SDS011;3488;42.616;23.350;2023-04-03T13:07:24;4.88;;;4.35;;
6898;SDS011;3488;42.616;23.350;2023-04-03T13:09:56;7.05;;;5.15;;
6898;SDS011;3488;42.616;23.350;2023-04-03T13:12:25;5.57;;;5.07;;
6898;SDS011;3488;42.616;23.350;2023-04-03T13:14:53;3.33;;;3.13;;
6898;SDS011;3488;42.616;23.350;2023-04-03T13:17:21;3.40;;;3.20;;
6898;SDS011;3488;42.616;23.350;2023-04-03T13:19:49;3.63;;;3.30;;
6898;SDS011;3488;42.616;23.350;2023-04-03T13:22:21;3.22;;;3.00;;
6898;SDS011;3488;42.616;23.350;2023-04-03T13:24:57;3.30;;;3.10;;
6898;SDS011;3488;42.616;23.350;2023-04-03T13:27:28;3.00;;;2.80;;
6898;SDS011;3488;42.616;23.350;2023-04-03T13:29:57;2.88;;;2.67;;
6898;SDS011;3488;42.616;23.350;2023-04-03T13:32:28;3.10;;;2.90;;
6898;SDS011;3488;42.616;23.350;2023-04-03T13:34:56;3.47;;;3.25;;
6898;SDS011;3488;42.616;23.350;2023-04-03T13:37:24;3.13;;;2.92;;
6898;SDS011;3488;42.616;23.350;2023-04-03T13:40:01;3.40;;;3.17;;
6898;SDS011;3488;42.616;23.350;2023-04-03T13:42:31;3.28;;;3.10;;
6898;SDS011;3488;42.616;23.350;2023-04-03T13:45:18;2.60;;;2.50;;
6898;SDS011;3488;42.616;23.350;2023-04-03T13:47:49;4.75;;;3.25;;
6898;SDS011;3488;42.616;23.350;2023-04-03T13:50:18;3.80;;;3.50;;
6898;SDS011;3488;42.616;23.350;2023-04-03T13:52:48;3.55;;;3.08;;
6898;SDS011;3488;42.616;23.350;2023-04-03T13:55:21;3.60;;;3.30;;
6898;SDS011;3488;42.616;23.350;2023-04-03T13:57:54;3.30;;;3.10;;
6898;SDS011;3488;42.616;23.350;2023-04-03T14:00:34;4.60;;;4.20;;
6898;SDS011;3488;42.616;23.350;2023-04-03T14:03:11;2.72;;;2.63;;
6898;SDS011;3488;42.616;23.350;2023-04-03T14:05:45;3.28;;;3.08;;
6898;SDS011;3488;42.616;23.350;2023-04-03T14:08:12;3.13;;;2.92;;
6898;SDS011;3488;42.616;23.350;2023-04-03T14:10:41;5.82;;;4.00;;
6898;SDS011;3488;42.616;23.350;2023-04-03T14:13:09;4.88;;;4.50;;
6898;SDS011;3488;42.616;23.350;2023-04-03T14:15:38;4.47;;;4.07;;
6898;SDS011;3488;42.616;23.350;2023-04-03T14:18:05;6.00;;;3.67;;
6898;SDS011;3488;42.616;23.350;2023-04-03T14:20:32;3.33;;;3.13;;
6898;SDS011;3488;42.616;23.350;2023-04-03T14:22:59;3.15;;;2.95;;
6898;SDS011;3488;42.616;23.350;2023-04-03T14:25:26;3.33;;;3.10;;
6898;SDS011;3488;42.616;23.350;2023-04-03T14:27:55;3.15;;;2.95;;
6898;SDS011;3488;42.616;23.350;2023-04-03T14:30:23;3.28;;;2.97;;
6898;SDS011;3488;42.616;23.350;2023-04-03T14:32:52;5.15;;;3.28;;
6898;SDS011;3488;42.616;23.350;2023-04-03T14:35:20;3.30;;;3.10;;
6898;SDS011;3488;42.616;23.350;2023-04-03T14:37:47;3.95;;;3.65;;
6898;SDS011;3488;42.616;23.350;2023-04-03T14:40:16;4.63;;;4.13;;
6898;SDS011;3488;42.616;23.350;2023-04-03T14:42:44;3.85;;;3.45;;
6898;SDS011;3488;42.616;23.350;2023-04-03T14:45:15;3.42;;;3.22;;
6898;SDS011;3488;42.616;23.350;2023-04-03T14:47:44;3.15;;;2.95;;
6898;SDS011;3488;42.616;23.350;2023-04-03T14:50:13;2.80;;;2.70;;
6898;SDS011;3488;42.616;23.350;2023-04-03T14:52:42;2.70;;;2.60;;
6898;SDS011;3488;42.616;23.350;2023-04-03T14:55:11;3.20;;;3.00;;
6898;SDS011;3488;42.616;23.350;2023-04-03T14:57:41;2.90;;;2.80;;
6898;SDS011;3488;42.616;23.350;2023-04-03T15:00:11;2.63;;;2.42;;
6898;SDS011;3488;42.616;23.350;2023-04-03T15:02:43;2.65;;;2.55;;
6898;SDS011;3488;42.616;23.350;2023-04-03T15:05:11;2.88;;;2.67;;
6898;SDS011;3488;42.616;23.350;2023-04-03T15:07:39;3.53;;;2.08;;
6898;SDS011;3488;42.616;23.350;2023-04-03T15:10:14;2.35;;;2.25;;
6898;SDS011;3488;42.616;23.350;2023-04-03T15:12:43;6.68;;;2.40;;
6898;SDS011;3488;42.616;23.350;2023-04-03T15:15:11;2.17;;;2.08;;
6898;SDS011;3488;42.616;23.350;2023-04-03T15:17:40;3.05;;;2.83;;
6898;SDS011;3488;42.616;23.350;2023-04-03T15:20:11;2.58;;;2.33;;
6898;SDS011;3488;42.616;23.350;2023-04-03T15:22:40;2.50;;;2.40;;
6898;SDS011;3488;42.616;23.350;2023-04-03T15:25:07;3.03;;;2.83;;
6898;SDS011;3488;42.616;23.350;2023-04-03T15:27:35;3.20;;;2.90;;
6898;SDS011;3488;42.616;23.350;2023-04-03T15:30:02;3.10;;;2.78;;